Time;durP1;ratioP1;P1;durP2;ratioP2;P2;SDS_P1;SDS_P2;PMS_P1;PMS_P2;Temp;Humidity;BMP_temperature;BMP_pressure;BME280_temperature;BME280_humidity;BME280_pressure;Samples;Min_cycle;Max_cycle;Signal;HPM_P1;HPM_P2
2023/05/09 00:02:05;;;;;;;21.80;18.17;;;13.80;99.90;;;;;;5071983;28;21125;-82
2023/05/09 00:04:32;;;;;;;18.93;16.60;;;13.80;99.90;;;;;;5071873;28;20476;-82
2023/05/09 00:07:00;;;;;;;20.40;17.23;;;13.90;99.90;;;;;;5072402;28;20464;-82
2023/05/09 00:09:27;;;;;;;23.87;17.83;;;14.00;99.90;;;;;;5070653;28;20445;-82
2023/05/09 00:11:55;;;;;;;24.30;20.67;;;14.00;99.90;;;;;;5072411;28;20927;-82
2023/05/09 00:14:23;;;;;;;23.23;18.87;;;14.00;99.90;;;;;;5072844;28;20676;-82
2023/05/09 00:16:50;;;;;;;23.40;17.33;;;13.90;99.90;;;;;;5072472;28;20477;-81
2023/05/09 00:19:17;;;;;;;20.53;18.07;;;13.80;99.90;;;;;;5071923;28;20774;-82
2023/05/09 00:21:44;;;;;;;20.90;17.87;;;13.90;99.90;;;;;;5072397;28;20536;-81
2023/05/09 00:24:11;;;;;;;23.73;19.93;;;13.90;99.90;;;;;;5072266;28;20879;-82
2023/05/09 00:26:38;;;;;;;21.60;18.03;;;13.90;99.90;;;;;;5072289;28;20543;-82
2023/05/09 00:29:06;;;;;;;23.30;18.80;;;13.90;99.90;;;;;;5072049;28;20445;-82
2023/05/09 00:31:33;;;;;;;21.70;17.67;;;13.80;99.90;;;;;;5072058;28;20519;-82
2023/05/09 00:34:00;;;;;;;21.30;17.40;;;13.70;99.90;;;;;;5069594;28;20532;-81
2023/05/09 00:36:27;;;;;;;23.10;18.83;;;13.70;99.90;;;;;;5071213;28;20544;-82
2023/05/09 00:38:54;;;;;;;24.87;18.93;;;13.80;99.90;;;;;;5070737;28;20924;-82
2023/05/09 00:41:21;;;;;;;23.40;19.37;;;13.90;99.90;;;;;;5071630;28;20946;-81
2023/05/09 00:43:48;;;;;;;22.57;18.97;;;13.80;99.90;;;;;;5072636;28;20792;-82
2023/05/09 00:46:16;;;;;;;20.10;17.73;;;13.80;99.90;;;;;;5071880;28;20472;-82
2023/05/09 00:48:45;;;;;;;18.17;15.70;;;13.80;99.90;;;;;;5072252;28;20536;-82
2023/05/09 00:51:12;;;;;;;19.00;17.00;;;13.90;99.90;;;;;;5072341;28;20468;-82
2023/05/09 00:53:39;;;;;;;19.57;15.77;;;13.90;99.90;;;;;;5071843;28;20506;-82
2023/05/09 00:56:07;;;;;;;17.63;15.13;;;13.90;99.90;;;;;;5078500;28;20536;-82
2023/05/09 00:58:34;;;;;;;16.07;13.87;;;13.90;99.90;;;;;;5073222;28;20875;-82
2023/05/09 01:01:02;;;;;;;15.37;13.03;;;13.90;99.90;;;;;;5072033;28;20448;-82
2023/05/09 01:03:31;;;;;;;16.67;14.77;;;13.80;99.90;;;;;;5071341;28;20441;-82
2023/05/09 01:06:06;;;;;;;14.67;11.93;;;13.80;99.90;;;;;;5072036;28;20556;-83
2023/05/09 01:08:43;;;;;;;13.37;10.67;;;13.80;99.90;;;;;;5070595;28;20506;-82
2023/05/09 01:11:16;;;;;;;11.40;10.20;;;13.70;99.90;;;;;;5053476;28;20528;-82
2023/05/09 01:14:05;;;;;;;10.00;7.20;;;13.80;99.90;;;;;;5071169;28;20473;-82
2023/05/09 01:16:39;;;;;;;9.17;7.67;;;13.80;99.90;;;;;;5070832;28;21040;-81
2023/05/09 01:19:22;;;;;;;8.03;5.50;;;13.70;99.90;;;;;;5057181;28;20559;-82
2023/05/09 01:21:50;;;;;;;9.43;6.93;;;13.80;99.90;;;;;;5071352;28;20496;-82
2023/05/09 01:24:51;;;;;;;6.00;4.40;;;13.70;99.90;;;;;;5071740;28;20451;-82
2023/05/09 01:27:27;;;;;;;6.37;4.60;;;13.80;99.90;;;;;;5071268;28;20472;-81
2023/05/09 01:29:57;;;;;;;5.63;4.27;;;13.80;99.90;;;;;;5071330;28;20520;-81
2023/05/09 01:32:26;;;;;;;7.00;4.20;;;13.70;99.90;;;;;;5071308;28;20498;-82
2023/05/09 01:34:56;;;;;;;6.83;5.20;;;13.60;99.90;;;;;;5069976;28;20533;-82
2023/05/09 01:37:30;;;;;;;6.70;6.00;;;13.60;99.90;;;;;;5070978;28;20540;-81
2023/05/09 01:40:00;;;;;;;6.57;4.90;;;13.40;99.90;;;;;;5071114;28;21046;-81
2023/05/09 01:42:33;;;;;;;7.47;6.73;;;13.20;99.90;;;;;;5071733;28;20449;-82
2023/05/09 01:45:02;;;;;;;16.77;13.57;;;13.10;99.90;;;;;;5071179;28;20575;-82
2023/05/09 01:47:30;;;;;;;18.40;13.80;;;12.80;99.90;;;;;;5070895;28;21243;-82
2023/05/09 01:49:57;;;;;;;9.87;7.90;;;12.80;99.90;;;;;;5071107;28;20517;-82
2023/05/09 01:52:26;;;;;;;7.80;6.07;;;12.90;99.90;;;;;;5070736;28;20448;-82
2023/05/09 01:54:54;;;;;;;9.53;7.90;;;13.00;99.90;;;;;;5071139;28;20525;-82
2023/05/09 01:57:22;;;;;;;10.13;8.13;;;13.20;99.90;;;;;;5070843;28;20468;-81
2023/05/09 01:59:50;;;;;;;7.63;6.80;;;13.10;99.90;;;;;;5070669;28;20473;-82
2023/05/09 02:02:19;;;;;;;4.90;4.07;;;12.90;99.90;;;;;;5070994;28;20481;-82
2023/05/09 02:04:48;;;;;;;3.83;2.87;;;13.00;99.90;;;;;;5070746;28;21011;-82
2023/05/09 02:07:15;;;;;;;2.90;2.47;;;13.00;99.90;;;;;;5069650;28;20511;-81
2023/05/09 02:09:42;;;;;;;5.07;4.00;;;13.10;99.90;;;;;;5063609;28;21003;-82
2023/05/09 02:12:09;;;;;;;4.00;3.20;;;13.20;99.90;;;;;;5070730;28;20445;-82
2023/05/09 02:14:36;;;;;;;3.90;3.13;;;13.30;99.90;;;;;;5071226;28;20433;-82
2023/05/09 02:17:05;;;;;;;4.10;3.80;;;13.30;99.90;;;;;;5070836;28;21056;-81
2023/05/09 02:19:35;;;;;;;4.97;4.20;;;13.30;99.90;;;;;;5070610;28;20480;-82
2023/05/09 02:22:03;;;;;;;4.17;3.43;;;13.30;99.90;;;;;;5057983;28;20529;-82
2023/05/09 02:24:32;;;;;;;3.70;3.30;;;13.40;99.90;;;;;;5065349;28;20582;-81
2023/05/09 02:27:01;;;;;;;3.13;2.83;;;13.30;99.90;;;;;;5070371;28;20997;-82
2023/05/09 02:29:37;;;;;;;2.80;2.50;;;13.50;99.90;;;;;;5070890;28;20456;-81
2023/05/09 02:32:05;;;;;;;4.50;3.20;;;13.50;99.90;;;;;;5071245;28;20455;-82
2023/05/09 02:34:35;;;;;;;4.00;3.07;;;13.40;99.90;;;;;;5075305;28;20472;-81
2023/05/09 02:37:03;;;;;;;3.97;3.60;;;13.40;99.90;;;;;;5073911;28;20811;-81
2023/05/09 02:39:30;;;;;;;4.73;2.90;;;13.40;99.90;;;;;;5069465;28;20506;-82
2023/05/09 02:41:57;;;;;;;4.17;2.83;;;13.40;99.90;;;;;;5064184;28;20501;-81
2023/05/09 02:44:24;;;;;;;3.47;3.00;;;13.40;99.90;;;;;;5070392;28;20477;-82
2023/05/09 02:46:51;;;;;;;6.00;3.37;;;13.30;99.90;;;;;;5069741;28;20508;-81
2023/05/09 02:49:18;;;;;;;3.00;2.70;;;13.30;99.90;;;;;;5068083;28;20532;-82
2023/05/09 02:51:46;;;;;;;3.80;3.10;;;13.30;99.90;;;;;;5070204;28;20480;-81
2023/05/09 02:54:13;;;;;;;4.57;3.33;;;13.40;99.90;;;;;;5070765;28;20520;-81
2023/05/09 02:56:40;;;;;;;2.83;2.50;;;13.50;99.90;;;;;;5071855;28;20462;-81
2023/05/09 02:59:06;;;;;;;3.27;2.70;;;13.40;99.90;;;;;;5073956;28;20524;-82
2023/05/09 03:01:33;;;;;;;2.93;2.20;;;13.40;99.90;;;;;;5073918;28;20468;-81
2023/05/09 03:04:00;;;;;;;2.73;2.13;;;13.20;99.90;;;;;;5073733;28;20452;-81
2023/05/09 03:06:27;;;;;;;3.20;2.77;;;13.20;99.90;;;;;;5073814;28;20476;-81
2023/05/09 03:08:55;;;;;;;3.03;2.20;;;13.10;99.90;;;;;;5073438;28;20515;-81
2023/05/09 03:11:22;;;;;;;3.13;2.83;;;13.20;99.90;;;;;;5073724;28;20469;-81
2023/05/09 03:13:49;;;;;;;4.60;3.83;;;13.20;99.90;;;;;;5074226;28;20502;-81
2023/05/09 03:16:18;;;;;;;4.97;4.17;;;13.30;99.90;;;;;;5074216;28;20475;-81
2023/05/09 03:18:45;;;;;;;4.50;2.83;;;13.20;99.90;;;;;;5073610;28;20454;-81
2023/05/09 03:21:12;;;;;;;3.30;3.00;;;13.20;99.90;;;;;;5073540;28;20474;-81
2023/05/09 03:23:39;;;;;;;4.63;2.13;;;13.30;99.90;;;;;;5073801;28;20449;-82
2023/05/09 03:26:07;;;;;;;2.57;2.10;;;13.40;99.90;;;;;;5073612;28;20574;-81
2023/05/09 03:28:34;;;;;;;2.50;2.10;;;13.00;99.90;;;;;;5074222;28;20822;-82
2023/05/09 03:31:01;;;;;;;3.20;1.93;;;12.90;99.90;;;;;;5073923;28;20472;-81
2023/05/09 03:33:28;;;;;;;2.77;2.20;;;13.10;99.90;;;;;;5074271;28;20441;-81
2023/05/09 03:35:55;;;;;;;4.00;2.13;;;13.00;99.90;;;;;;5073426;28;20522;-81
2023/05/09 03:38:23;;;;;;;2.50;1.73;;;13.10;99.90;;;;;;5086346;28;20985;-81
2023/05/09 03:40:50;;;;;;;3.00;2.00;;;13.20;99.90;;;;;;5071854;28;20444;-81
2023/05/09 03:43:18;;;;;;;2.73;2.43;;;13.10;99.90;;;;;;5057452;28;20442;-81
2023/05/09 03:45:48;;;;;;;2.40;2.10;;;13.20;99.90;;;;;;5057763;28;20496;-81
2023/05/09 03:48:15;;;;;;;2.70;2.30;;;13.00;99.90;;;;;;5072037;28;20547;-81
2023/05/09 03:50:42;;;;;;;3.33;3.03;;;12.80;99.90;;;;;;5072875;28;20445;-81
2023/05/09 03:53:09;;;;;;;3.77;2.83;;;12.70;99.90;;;;;;5072652;28;21043;-82
2023/05/09 03:55:36;;;;;;;3.90;3.47;;;12.80;99.90;;;;;;5072650;28;20445;-81
2023/05/09 03:58:03;;;;;;;4.07;3.37;;;12.90;99.90;;;;;;5072422;28;20536;-81
2023/05/09 04:00:32;;;;;;;4.40;3.23;;;12.80;99.90;;;;;;5072928;28;20524;-82
2023/05/09 04:02:59;;;;;;;9.60;4.10;;;12.80;99.90;;;;;;5073184;28;20464;-81
2023/05/09 04:05:26;;;;;;;6.90;5.50;;;12.50;99.90;;;;;;5073324;28;20537;-82
2023/05/09 04:07:53;;;;;;;7.53;5.77;;;12.30;99.90;;;;;;5072621;28;20468;-81
2023/05/09 04:10:20;;;;;;;6.90;6.20;;;12.30;99.90;;;;;;5071803;28;20538;-82
2023/05/09 04:12:47;;;;;;;9.23;6.67;;;12.40;99.90;;;;;;5072085;28;20477;-81
2023/05/09 04:15:14;;;;;;;8.50;6.73;;;12.60;99.90;;;;;;5079079;28;20502;-81
2023/05/09 04:17:42;;;;;;;8.57;6.83;;;12.80;99.90;;;;;;5073247;28;20548;-81
2023/05/09 04:20:11;;;;;;;7.83;6.03;;;13.00;99.90;;;;;;5067255;28;20527;-81
2023/05/09 04:22:38;;;;;;;8.27;6.60;;;13.00;99.90;;;;;;5052406;28;20540;-81
2023/05/09 04:25:06;;;;;;;9.20;4.90;;;13.10;99.90;;;;;;5070788;28;20441;-81
2023/05/09 04:27:33;;;;;;;5.73;5.03;;;13.20;99.90;;;;;;5072398;28;20476;-82
2023/05/09 04:30:00;;;;;;;6.20;4.80;;;13.20;99.90;;;;;;5072518;28;20453;-81
2023/05/09 04:32:26;;;;;;;5.77;5.03;;;13.20;99.90;;;;;;5073005;28;20511;-82
2023/05/09 04:34:55;;;;;;;8.07;6.27;;;13.20;99.90;;;;;;5072557;28;20449;-81
2023/05/09 04:37:22;;;;;;;7.23;6.33;;;13.20;99.90;;;;;;5072204;28;20493;-81
2023/05/09 04:39:52;;;;;;;8.13;7.33;;;13.10;99.90;;;;;;5072540;28;20483;-82
2023/05/09 04:42:19;;;;;;;5.43;4.93;;;13.00;99.90;;;;;;5072308;28;20972;-81
2023/05/09 04:44:46;;;;;;;6.10;5.50;;;13.10;99.90;;;;;;5070502;28;20456;-82
2023/05/09 04:47:13;;;;;;;6.73;4.97;;;13.20;99.90;;;;;;5070972;28;20539;-81
2023/05/09 04:49:40;;;;;;;5.53;4.97;;;13.20;99.90;;;;;;5070928;28;20543;-82
2023/05/09 04:52:08;;;;;;;6.13;5.50;;;13.20;99.90;;;;;;5056814;28;20438;-81
2023/05/09 04:54:35;;;;;;;6.00;5.07;;;13.30;99.90;;;;;;5052193;28;21141;-81
2023/05/09 04:57:03;;;;;;;6.80;6.10;;;13.30;99.90;;;;;;5052056;28;20536;-82
2023/05/09 04:59:30;;;;;;;6.87;5.90;;;13.30;99.90;;;;;;5052070;28;20454;-82
2023/05/09 05:01:57;;;;;;;6.73;5.70;;;13.40;99.90;;;;;;5057713;28;20472;-81
2023/05/09 05:04:24;;;;;;;7.50;5.20;;;13.40;99.90;;;;;;5060682;28;20524;-82
2023/05/09 05:06:51;;;;;;;5.67;5.17;;;13.30;99.90;;;;;;5062425;28;20543;-81
2023/05/09 05:09:19;;;;;;;7.20;5.57;;;13.20;99.90;;;;;;5062344;28;20521;-81
2023/05/09 05:11:46;;;;;;;6.07;5.27;;;13.20;99.90;;;;;;5054808;28;20473;-82
2023/05/09 05:14:13;;;;;;;7.60;6.13;;;13.20;99.90;;;;;;5067711;28;20519;-82
2023/05/09 05:16:40;;;;;;;10.30;7.17;;;13.30;99.90;;;;;;5063839;28;21421;-83
2023/05/09 05:19:07;;;;;;;6.13;5.53;;;13.00;99.90;;;;;;5062395;28;20937;-83
2023/05/09 05:21:34;;;;;;;8.00;5.60;;;13.00;99.90;;;;;;5062621;28;20473;-82
2023/05/09 05:24:01;;;;;;;6.93;6.13;;;13.20;99.90;;;;;;5070807;28;20529;-82
2023/05/09 05:26:29;;;;;;;5.83;5.03;;;13.40;99.90;;;;;;5070800;28;20508;-81
2023/05/09 05:28:56;;;;;;;6.73;5.60;;;13.40;99.90;;;;;;5067048;28;20476;-81
2023/05/09 05:31:23;;;;;;;6.00;5.40;;;13.50;99.90;;;;;;5069797;28;20534;-81
2023/05/09 05:33:50;;;;;;;6.50;5.20;;;13.50;99.90;;;;;;5067663;28;20491;-81
2023/05/09 05:36:17;;;;;;;7.77;5.83;;;13.50;99.90;;;;;;5069436;28;20443;-81
2023/05/09 05:38:44;;;;;;;5.60;5.00;;;13.40;99.90;;;;;;5069292;28;20440;-81
2023/05/09 05:41:11;;;;;;;5.10;4.50;;;13.50;99.90;;;;;;5067492;28;20476;-81
2023/05/09 05:43:39;;;;;;;7.83;5.30;;;13.50;99.90;;;;;;5071857;28;20476;-83
2023/05/09 05:46:06;;;;;;;6.13;5.53;;;13.60;99.90;;;;;;5070785;28;21221;-82
2023/05/09 05:48:33;;;;;;;5.97;5.37;;;13.60;99.90;;;;;;5063230;28;20503;-82
2023/05/09 05:51:00;;;;;;;6.60;5.20;;;13.60;99.90;;;;;;5062858;28;20450;-84
2023/05/09 05:53:27;;;;;;;5.90;5.13;;;13.60;99.90;;;;;;5074115;28;20445;-82
2023/05/09 05:55:54;;;;;;;7.07;5.17;;;13.60;99.90;;;;;;5053014;28;20981;-82
2023/05/09 05:58:21;;;;;;;7.10;5.80;;;13.50;99.90;;;;;;5051714;28;20921;-82
2023/05/09 06:00:52;;;;;;;7.20;5.40;;;13.50;99.90;;;;;;5052632;28;20510;-82
2023/05/09 06:03:18;;;;;;;5.93;5.33;;;13.60;99.90;;;;;;5068043;28;20459;-82
2023/05/09 06:05:47;;;;;;;7.70;6.20;;;13.60;99.90;;;;;;5069299;28;20472;-81
2023/05/09 06:08:14;;;;;;;6.63;6.00;;;13.70;99.90;;;;;;5070545;28;20508;-82
2023/05/09 06:10:41;;;;;;;6.20;5.50;;;13.70;99.90;;;;;;5056910;28;20441;-82
2023/05/09 06:13:08;;;;;;;5.60;5.00;;;13.70;99.90;;;;;;5070318;28;20451;-82
2023/05/09 06:15:35;;;;;;;7.00;4.97;;;13.60;99.90;;;;;;5066947;28;20499;-82
2023/05/09 06:18:03;;;;;;;5.13;4.33;;;13.70;99.90;;;;;;5070197;28;20527;-82
2023/05/09 06:20:30;;;;;;;5.50;4.87;;;13.50;99.90;;;;;;5069716;28;20831;-82
2023/05/09 06:22:57;;;;;;;8.90;4.93;;;13.60;99.90;;;;;;5070391;28;20508;-82
2023/05/09 06:25:24;;;;;;;7.97;5.87;;;13.30;99.90;;;;;;5071106;28;20525;-82
2023/05/09 06:27:51;;;;;;;8.13;5.50;;;13.30;99.90;;;;;;5071075;28;20489;-82
2023/05/09 06:30:18;;;;;;;6.47;4.87;;;13.50;99.90;;;;;;5071149;28;20476;-82
2023/05/09 06:32:45;;;;;;;6.30;4.93;;;13.60;99.90;;;;;;5069020;28;20919;-82
2023/05/09 06:35:14;;;;;;;6.03;5.33;;;13.50;99.90;;;;;;5073339;28;20472;-82
2023/05/09 06:37:41;;;;;;;5.93;5.27;;;13.40;99.90;;;;;;5073437;28;20461;-82
2023/05/09 06:40:09;;;;;;;8.30;6.40;;;13.30;99.90;;;;;;5073775;28;20876;-82
2023/05/09 06:42:36;;;;;;;7.43;5.80;;;13.30;99.90;;;;;;5075044;28;20437;-82
2023/05/09 06:45:03;;;;;;;7.67;6.30;;;13.30;99.90;;;;;;5074388;28;20527;-82
2023/05/09 06:47:29;;;;;;;6.70;4.97;;;13.50;99.90;;;;;;5070166;28;20477;-82
2023/05/09 06:49:56;;;;;;;6.13;5.53;;;13.60;99.90;;;;;;5054855;28;20473;-82
2023/05/09 06:52:25;;;;;;;5.70;4.93;;;13.70;99.90;;;;;;5054158;28;20525;-81
2023/05/09 06:54:52;;;;;;;6.13;5.53;;;13.70;99.90;;;;;;5054950;28;20449;-82
2023/05/09 06:57:19;;;;;;;8.73;6.53;;;13.80;99.90;;;;;;5068187;28;20999;-82
2023/05/09 06:59:46;;;;;;;7.40;5.50;;;13.80;99.90;;;;;;5074487;28;20527;-83
2023/05/09 07:02:12;;;;;;;7.03;6.33;;;13.90;99.90;;;;;;5070202;28;21026;-82
2023/05/09 07:04:39;;;;;;;6.23;5.53;;;13.90;99.90;;;;;;5054573;28;20473;-82
2023/05/09 07:07:06;;;;;;;6.43;5.73;;;13.80;99.90;;;;;;5054902;28;20481;-82
2023/05/09 07:09:34;;;;;;;5.83;4.40;;;13.80;99.90;;;;;;5054110;28;20886;-83
2023/05/09 07:12:01;;;;;;;5.87;5.30;;;13.80;99.90;;;;;;5054543;28;20499;-83
2023/05/09 07:14:28;;;;;;;7.97;5.60;;;13.80;99.90;;;;;;5059228;28;20532;-82
2023/05/09 07:16:55;;;;;;;8.37;6.33;;;13.60;99.90;;;;;;5063887;28;20935;-82
2023/05/09 07:19:22;;;;;;;6.87;6.17;;;13.70;99.90;;;;;;5054101;28;20528;-82
2023/05/09 07:21:49;;;;;;;8.63;5.70;;;13.60;99.90;;;;;;5054146;28;20870;-82
2023/05/09 07:24:16;;;;;;;7.73;6.33;;;13.60;99.90;;;;;;5054023;28;20524;-82
2023/05/09 07:26:44;;;;;;;7.90;5.97;;;13.80;99.90;;;;;;5067352;28;20493;-83
2023/05/09 07:29:11;;;;;;;27.97;15.47;;;13.90;99.90;;;;;;5053896;28;20537;-83
2023/05/09 07:31:38;;;;;;;9.00;6.80;;;14.10;99.90;;;;;;5058230;28;20473;-82
2023/05/09 07:34:05;;;;;;;6.10;5.43;;;14.10;99.90;;;;;;5063236;28;20468;-83
2023/05/09 07:36:32;;;;;;;4.90;4.40;;;14.10;99.90;;;;;;5074651;28;20496;-82
2023/05/09 07:38:59;;;;;;;6.70;5.20;;;14.10;99.90;;;;;;5073972;28;20821;-82
2023/05/09 07:41:26;;;;;;;7.00;4.97;;;14.20;99.90;;;;;;5073746;28;20471;-83
2023/05/09 07:43:54;;;;;;;5.07;4.57;;;14.20;99.90;;;;;;5073528;28;20436;-83
2023/05/09 07:46:21;;;;;;;5.70;5.10;;;14.20;99.90;;;;;;5073710;28;20538;-83
2023/05/09 07:48:48;;;;;;;5.13;3.90;;;14.30;99.90;;;;;;5073850;28;20560;-82
2023/05/09 07:51:15;;;;;;;5.20;4.60;;;14.40;99.90;;;;;;5065972;28;20473;-82
2023/05/09 07:53:42;;;;;;;5.80;5.03;;;14.40;99.90;;;;;;5053544;28;20477;-82
2023/05/09 07:56:09;;;;;;;4.40;3.10;;;14.40;99.90;;;;;;5053194;28;20519;-83
2023/05/09 07:58:36;;;;;;;4.10;3.47;;;14.30;99.90;;;;;;5063827;28;20604;-82
2023/05/09 08:01:04;;;;;;;4.47;3.90;;;14.40;99.90;;;;;;5073100;28;20526;-83
2023/05/09 08:03:31;;;;;;;3.50;3.17;;;14.50;99.90;;;;;;5074668;28;20541;-82
2023/05/09 08:05:58;;;;;;;5.17;4.50;;;14.60;99.90;;;;;;5073486;28;20532;-82
2023/05/09 08:08:25;;;;;;;4.33;3.93;;;14.70;99.90;;;;;;5073047;28;20566;-82
2023/05/09 08:10:52;;;;;;;4.63;3.83;;;14.80;99.90;;;;;;5073825;28;20449;-83
2023/05/09 08:13:21;;;;;;;4.20;3.80;;;14.90;99.90;;;;;;5073060;28;20528;-83
2023/05/09 08:15:47;;;;;;;5.77;3.57;;;15.00;99.90;;;;;;5071788;28;20452;-82
2023/05/09 08:18:16;;;;;;;4.60;3.53;;;15.20;99.90;;;;;;5072704;28;20575;-83
2023/05/09 08:20:43;;;;;;;4.23;3.83;;;15.30;99.90;;;;;;5072843;28;20478;-83
2023/05/09 08:23:10;;;;;;;2.40;2.20;;;15.30;99.90;;;;;;5065203;28;20442;-83
2023/05/09 08:25:36;;;;;;;4.43;2.33;;;15.30;99.90;;;;;;5059680;28;20529;-83
2023/05/09 08:28:04;;;;;;;2.93;2.70;;;15.50;99.90;;;;;;5057924;28;20532;-83
2023/05/09 08:30:31;;;;;;;3.00;2.63;;;15.70;99.90;;;;;;5052737;28;20533;-83
2023/05/09 08:32:57;;;;;;;3.13;2.77;;;15.60;99.90;;;;;;5052561;28;20802;-82
2023/05/09 08:35:26;;;;;;;3.90;3.33;;;15.60;99.90;;;;;;5052832;28;20521;-82
2023/05/09 08:37:53;;;;;;;3.37;3.07;;;15.50;99.90;;;;;;5052688;28;20970;-83
2023/05/09 08:40:20;;;;;;;3.97;3.57;;;15.70;99.90;;;;;;5068298;28;20529;-82
2023/05/09 08:42:48;;;;;;;3.17;2.70;;;15.70;99.90;;;;;;5072644;28;20519;-82
2023/05/09 08:45:18;;;;;;;3.10;2.80;;;16.00;99.90;;;;;;5071944;28;20440;-82
2023/05/09 08:47:46;;;;;;;4.20;2.80;;;15.90;99.90;;;;;;5072616;28;20564;-83
2023/05/09 08:50:14;;;;;;;3.57;2.20;;;15.70;99.90;;;;;;5071566;28;20512;-83
2023/05/09 08:52:42;;;;;;;2.87;2.50;;;15.60;99.90;;;;;;5072004;28;20441;-82
2023/05/09 08:55:10;;;;;;;2.40;2.10;;;15.70;99.90;;;;;;5071579;28;20946;-83
2023/05/09 08:57:37;;;;;;;3.83;2.20;;;15.90;99.90;;;;;;5071904;28;20496;-82
2023/05/09 09:00:05;;;;;;;2.80;2.43;;;16.20;99.90;;;;;;5072339;28;20482;-83
2023/05/09 09:02:33;;;;;;;3.27;2.20;;;16.30;99.90;;;;;;5071521;28;20513;-83
2023/05/09 09:05:01;;;;;;;2.40;1.80;;;16.40;99.90;;;;;;5072094;28;20469;-83
2023/05/09 09:07:29;;;;;;;2.37;2.07;;;16.40;99.90;;;;;;5072022;28;20490;-83
2023/05/09 09:09:58;;;;;;;2.17;1.73;;;16.20;99.90;;;;;;5075374;28;21000;-83
2023/05/09 09:12:26;;;;;;;2.37;2.17;;;16.30;99.90;;;;;;5085993;28;20509;-83
2023/05/09 09:14:55;;;;;;;6.07;2.13;;;16.20;99.90;;;;;;5073938;28;20477;-82
2023/05/09 09:17:26;;;;;;;3.63;2.30;;;16.40;99.90;;;;;;5071938;28;20841;-83
2023/05/09 09:19:56;;;;;;;3.07;2.60;;;16.40;99.90;;;;;;5051664;28;20465;-83
2023/05/09 09:22:24;;;;;;;2.53;1.90;;;16.50;99.90;;;;;;5051762;28;20484;-82
2023/05/09 09:24:51;;;;;;;1.60;1.30;;;16.60;99.90;;;;;;5051936;28;20540;-83
2023/05/09 09:27:20;;;;;;;1.60;0.90;;;16.30;99.90;;;;;;5051373;28;20582;-83
2023/05/09 09:29:47;;;;;;;2.07;1.10;;;16.20;99.90;;;;;;5053283;28;20442;-83
2023/05/09 09:32:14;;;;;;;1.30;1.00;;;16.20;99.90;;;;;;5071169;28;20533;-82
2023/05/09 09:34:41;;;;;;;1.50;1.10;;;16.40;99.90;;;;;;5071741;28;20863;-82
2023/05/09 09:37:08;;;;;;;1.90;0.93;;;16.50;99.90;;;;;;5071561;28;20587;-83
2023/05/09 09:39:34;;;;;;;3.47;1.40;;;16.70;99.90;;;;;;5071590;28;20441;-82
2023/05/09 09:42:10;;;;;;;1.40;0.83;;;16.80;99.90;;;;;;5071653;28;20534;-82
2023/05/09 09:44:38;;;;;;;3.33;0.70;;;17.00;99.90;;;;;;5071502;28;20534;-83
2023/05/09 09:47:10;;;;;;;1.27;0.83;;;17.10;99.90;;;;;;5071530;28;20546;-83
2023/05/09 09:49:37;;;;;;;1.40;0.90;;;17.30;99.90;;;;;;5071513;28;20454;-83
2023/05/09 09:52:04;;;;;;;1.20;0.70;;;17.40;99.90;;;;;;5071156;28;20462;-83
2023/05/09 09:54:32;;;;;;;1.20;0.90;;;17.40;99.90;;;;;;5071425;28;20475;-83
2023/05/09 09:57:00;;;;;;;1.80;0.80;;;17.40;99.90;;;;;;5071327;28;21171;-83
2023/05/09 09:59:27;;;;;;;1.40;0.80;;;17.70;99.90;;;;;;5071152;28;20543;-83
2023/05/09 10:02:00;;;;;;;1.20;0.57;;;18.00;99.90;;;;;;5072017;28;20486;-83
2023/05/09 10:04:29;;;;;;;1.50;0.57;;;17.90;99.90;;;;;;5071291;28;20439;-83
2023/05/09 10:06:58;;;;;;;1.10;0.80;;;17.90;99.90;;;;;;5071480;28;20460;-83
2023/05/09 10:09:27;;;;;;;1.10;0.70;;;17.80;99.90;;;;;;5070959;28;20481;-83
2023/05/09 10:11:55;;;;;;;1.10;0.80;;;18.10;99.90;;;;;;5065034;28;20488;-83
2023/05/09 10:14:24;;;;;;;1.63;0.90;;;18.30;99.90;;;;;;5056758;28;20528;-83
2023/05/09 10:16:54;;;;;;;1.50;0.50;;;18.40;99.90;;;;;;5060480;28;20462;-83
2023/05/09 10:19:25;;;;;;;1.27;0.80;;;18.50;99.90;;;;;;5061051;28;20535;-84
2023/05/09 10:21:54;;;;;;;1.47;1.17;;;18.50;99.90;;;;;;5060084;28;20449;-83
2023/05/09 10:24:28;;;;;;;1.30;0.80;;;18.80;99.90;;;;;;5062188;28;20475;-82
2023/05/09 10:27:03;;;;;;;1.53;1.30;;;19.00;99.90;;;;;;5062505;28;20466;-83
2023/05/09 10:29:35;;;;;;;2.20;0.90;;;19.10;99.90;;;;;;5061626;28;20501;-83
2023/05/09 10:32:11;;;;;;;1.37;0.80;;;19.20;99.90;;;;;;5061566;28;20455;-83
2023/05/09 10:34:43;;;;;;;1.50;0.80;;;19.10;99.90;;;;;;5069788;28;20966;-83
2023/05/09 10:37:11;;;;;;;1.87;0.63;;;19.00;99.90;;;;;;5068767;28;20526;-83
2023/05/09 10:39:39;;;;;;;1.10;0.60;;;18.90;99.90;;;;;;5070776;28;20456;-83
2023/05/09 10:42:08;;;;;;;1.47;0.80;;;18.70;99.90;;;;;;5070912;28;21020;-83
2023/05/09 10:44:35;;;;;;;1.10;0.60;;;19.00;99.90;;;;;;5070052;28;20444;-83
2023/05/09 10:47:02;;;;;;;1.03;0.50;;;18.80;99.90;;;;;;5062298;28;20517;-82
2023/05/09 10:49:30;;;;;;;1.10;0.70;;;18.70;99.90;;;;;;5078542;28;20461;-82
2023/05/09 10:51:58;;;;;;;1.00;0.60;;;18.90;99.90;;;;;;5073974;28;20434;-82
2023/05/09 10:54:32;;;;;;;1.00;0.50;;;18.90;99.90;;;;;;5070242;28;21025;-80
2023/05/09 10:56:59;;;;;;;1.00;0.47;;;18.90;99.90;;;;;;5069315;28;20587;-80
2023/05/09 10:59:34;;;;;;;1.30;0.60;;;19.20;99.90;;;;;;5068492;28;20844;-80
2023/05/09 11:02:02;;;;;;;1.93;0.70;;;19.10;99.90;;;;;;5069297;28;20450;-80
2023/05/09 11:04:31;;;;;;;1.60;1.00;;;19.20;99.90;;;;;;5070177;28;20472;-80
2023/05/09 11:07:00;;;;;;;1.40;0.73;;;19.20;99.90;;;;;;5070703;28;20832;-81
2023/05/09 11:09:36;;;;;;;2.80;0.87;;;19.10;99.90;;;;;;5070881;28;20477;-80
2023/05/09 11:12:11;;;;;;;1.40;0.83;;;19.00;99.90;;;;;;5084192;28;20453;-80
2023/05/09 11:14:43;;;;;;;1.63;0.73;;;19.10;99.90;;;;;;5071540;28;20444;-80
2023/05/09 11:17:11;;;;;;;3.40;1.13;;;19.10;99.90;;;;;;5070054;28;20537;-77
2023/05/09 11:19:58;;;;;;;2.33;1.70;;;19.20;99.90;;;;;;5073103;28;20548;-80
2023/05/09 11:22:29;;;;;;;4.10;1.03;;;19.20;99.90;;;;;;5073481;28;20446;-81
2023/05/09 11:25:07;;;;;;;1.30;0.90;;;19.40;99.90;;;;;;5073955;28;20477;-80
2023/05/09 11:27:41;;;;;;;1.90;1.40;;;19.50;99.90;;;;;;5074101;28;20494;-80
2023/05/09 11:30:09;;;;;;;1.87;0.80;;;19.80;99.90;;;;;;5074158;28;20539;-80
2023/05/09 11:32:42;;;;;;;1.60;1.00;;;19.80;99.90;;;;;;5072744;28;20447;-79
2023/05/09 11:35:13;;;;;;;2.17;0.97;;;19.80;99.90;;;;;;5073864;28;20534;-79
2023/05/09 11:37:46;;;;;;;1.30;0.90;;;20.00;99.90;;;;;;5073467;28;20474;-80
2023/05/09 11:40:16;;;;;;;1.40;0.73;;;19.90;99.90;;;;;;5058891;28;20541;-81
2023/05/09 11:42:44;;;;;;;1.20;0.70;;;19.80;99.90;;;;;;5073553;28;20444;-81
2023/05/09 11:45:12;;;;;;;1.73;0.80;;;20.00;99.90;;;;;;5073832;28;20535;-80
2023/05/09 11:47:40;;;;;;;1.47;0.90;;;20.00;99.90;;;;;;5063107;28;20551;-81
2023/05/09 11:50:08;;;;;;;1.13;0.60;;;19.90;99.90;;;;;;5053729;28;20966;-80
2023/05/09 11:52:37;;;;;;;1.23;0.87;;;19.70;99.90;;;;;;5053565;28;20449;-79
2023/05/09 11:55:07;;;;;;;3.80;1.20;;;19.90;99.90;;;;;;5053797;28;20450;-80
2023/05/09 11:57:35;;;;;;;1.57;0.70;;;19.90;99.90;;;;;;5053263;28;20894;-80
2023/05/09 12:00:03;;;;;;;2.20;0.60;;;19.90;99.90;;;;;;5065506;28;20522;-80
2023/05/09 12:02:30;;;;;;;1.27;0.70;;;20.20;99.90;;;;;;5073678;28;20444;-80
2023/05/09 12:05:08;;;;;;;1.63;0.77;;;20.10;99.90;;;;;;5073416;28;20477;-81
2023/05/09 12:07:35;;;;;;;1.33;0.60;;;20.10;99.90;;;;;;5073592;28;20490;-79
2023/05/09 12:10:05;;;;;;;1.00;0.50;;;20.00;99.90;;;;;;5073302;28;20517;-80
2023/05/09 12:12:35;;;;;;;1.17;0.60;;;20.20;99.90;;;;;;5071260;28;20791;-80
2023/05/09 12:15:04;;;;;;;1.67;0.77;;;20.30;99.90;;;;;;5071295;28;20451;-80
2023/05/09 12:17:31;;;;;;;1.33;0.77;;;20.20;99.90;;;;;;5072747;28;21242;-80
2023/05/09 12:20:00;;;;;;;1.40;0.70;;;20.10;99.90;;;;;;5071423;28;20450;-80
2023/05/09 12:22:29;;;;;;;1.70;0.60;;;20.10;99.90;;;;;;5073054;28;20450;-80
2023/05/09 12:24:56;;;;;;;1.00;0.50;;;20.00;99.90;;;;;;5071738;28;20523;-80
2023/05/09 12:27:25;;;;;;;2.40;0.80;;;20.00;99.90;;;;;;5059807;28;20526;-80
2023/05/09 12:29:53;;;;;;;1.97;0.60;;;20.10;99.90;;;;;;5057386;28;20531;-80
2023/05/09 12:32:20;;;;;;;1.83;1.13;;;20.10;99.90;;;;;;5071941;28;21011;-80
2023/05/09 12:34:47;;;;;;;1.20;0.47;;;20.30;99.90;;;;;;5072669;28;20528;-80
2023/05/09 12:37:16;;;;;;;1.07;0.63;;;20.60;99.90;;;;;;5054910;28;20535;-80
2023/05/09 12:39:44;;;;;;;1.40;0.60;;;20.60;99.90;;;;;;5063675;28;20445;-80
2023/05/09 12:42:14;;;;;;;1.37;0.80;;;20.50;99.90;;;;;;5072111;28;20459;-79
2023/05/09 12:44:47;;;;;;;2.93;0.80;;;20.50;99.90;;;;;;5070971;28;20476;-79
2023/05/09 12:47:16;;;;;;;1.43;0.97;;;20.50;99.90;;;;;;5066836;28;21167;-79
2023/05/09 12:49:43;;;;;;;1.30;0.60;;;20.50;99.90;;;;;;5068949;28;20502;-79
2023/05/09 12:52:18;;;;;;;1.00;0.57;;;20.80;99.90;;;;;;5070137;28;20949;-80